createdAt,value
2023-04-30T00:01:38.782Z,12.20
2023-04-30T00:04:25.795Z,12.30
2023-04-30T00:07:12.983Z,12.30
2023-04-30T00:09:59.803Z,12.20
2023-04-30T00:12:46.676Z,12.20
2023-04-30T00:15:33.518Z,12.20
2023-04-30T00:18:23.331Z,12.40
2023-04-30T00:21:10.518Z,12.30
2023-04-30T00:23:57.459Z,12.20
2023-04-30T00:26:44.307Z,12.20
2023-04-30T00:29:33.692Z,12.20
2023-04-30T00:32:20.512Z,12.20
2023-04-30T00:35:09.374Z,12.20
2023-04-30T00:37:56.189Z,12.30
2023-04-30T00:40:44.287Z,12.30
2023-04-30T00:43:34.500Z,12.30
2023-04-30T00:46:21.716Z,12.30
2023-04-30T00:49:11.950Z,12.20
2023-04-30T00:51:58.839Z,12.20
2023-04-30T00:54:48.240Z,12.20
2023-04-30T00:57:36.377Z,12.10
2023-04-30T01:00:29.113Z,12.10
2023-04-30T01:03:16.378Z,12.10
2023-04-30T01:06:03.568Z,12.10
2023-04-30T01:08:50.826Z,12.10
2023-04-30T01:12:19.579Z,12.10
2023-04-30T01:15:12.199Z,12.10
2023-04-30T01:18:20.717Z,12.10
2023-04-30T01:21:08.525Z,12.10
2023-04-30T01:24:25.851Z,12.00
2023-04-30T01:27:46.537Z,12.10
2023-04-30T01:30:34.507Z,12.00
2023-04-30T01:33:23.962Z,12.00
2023-04-30T01:36:21.860Z,12.00
2023-04-30T01:39:29.601Z,11.90
2023-04-30T01:42:23.999Z,11.90
2023-04-30T01:45:37.915Z,11.80
2023-04-30T01:48:47.921Z,11.80
2023-04-30T01:51:45.993Z,11.80
2023-04-30T01:54:51.343Z,11.80
2023-04-30T01:57:44.022Z,11.70
2023-04-30T02:00:31.073Z,11.80
2023-04-30T02:03:18.343Z,11.80
2023-04-30T02:06:05.320Z,11.80
2023-04-30T02:08:52.159Z,11.80
2023-04-30T02:11:39.127Z,11.90
2023-04-30T02:14:26.069Z,11.90
2023-04-30T02:17:12.903Z,11.90
2023-04-30T02:20:00.354Z,11.90
2023-04-30T02:22:48.005Z,11.90
2023-04-30T02:25:38.028Z,11.90
2023-04-30T02:28:24.875Z,11.90
2023-04-30T02:31:11.789Z,11.90
2023-04-30T02:33:58.639Z,11.90
2023-04-30T02:36:45.589Z,11.90
2023-04-30T02:39:32.532Z,11.90
2023-04-30T02:42:19.551Z,11.90
2023-04-30T02:45:06.872Z,11.90
2023-04-30T02:47:53.741Z,11.90
2023-04-30T02:50:40.644Z,11.80
2023-04-30T02:53:27.518Z,11.80
2023-04-30T02:56:14.452Z,11.80
2023-04-30T02:59:01.445Z,11.90
2023-04-30T03:01:48.254Z,11.90
2023-04-30T03:04:35.135Z,11.90
2023-04-30T03:07:22.034Z,11.90
2023-04-30T03:10:09.546Z,11.90
2023-04-30T03:12:56.480Z,11.90
2023-04-30T03:15:43.290Z,11.80
2023-04-30T03:18:30.380Z,11.80
2023-04-30T03:21:17.303Z,11.80
2023-04-30T03:24:04.283Z,11.80
2023-04-30T03:26:51.397Z,11.80
2023-04-30T03:29:38.231Z,11.80
2023-04-30T03:32:25.227Z,11.90
2023-04-30T03:35:12.066Z,11.80
2023-04-30T03:37:58.938Z,11.80
2023-04-30T03:40:45.947Z,11.80
2023-04-30T03:43:32.783Z,11.80
2023-04-30T03:46:19.693Z,11.70
2023-04-30T03:49:06.630Z,11.70
2023-04-30T03:51:53.590Z,11.70
2023-04-30T03:54:40.482Z,11.70
2023-04-30T03:57:27.337Z,11.70
2023-04-30T04:00:14.551Z,11.70
2023-04-30T04:03:01.541Z,11.70
2023-04-30T04:05:48.761Z,11.70
2023-04-30T04:08:36.724Z,11.70
2023-04-30T04:11:23.682Z,11.70
2023-04-30T04:14:11.710Z,11.70
2023-04-30T04:17:00.127Z,11.60
2023-04-30T04:19:46.922Z,11.60
2023-04-30T04:22:33.784Z,11.60
2023-04-30T04:25:20.595Z,11.70
2023-04-30T04:28:07.750Z,11.60
2023-04-30T04:30:54.550Z,11.60
2023-04-30T04:33:41.391Z,11.60
2023-04-30T04:36:28.834Z,11.60
2023-04-30T04:39:16.029Z,11.60
2023-04-30T04:42:03.101Z,11.60
2023-04-30T04:44:49.985Z,11.60
2023-04-30T04:47:37.819Z,11.60
2023-04-30T04:50:24.753Z,11.70
2023-04-30T04:53:11.671Z,11.70
2023-04-30T04:55:58.463Z,11.70
2023-04-30T04:58:46.350Z,11.80
2023-04-30T05:01:33.268Z,11.70
2023-04-30T05:04:20.097Z,11.70
2023-04-30T05:07:08.121Z,11.80
2023-04-30T05:09:55.155Z,11.80
2023-04-30T05:12:42.258Z,11.90
2023-04-30T05:15:29.179Z,11.90
2023-04-30T05:18:16.364Z,11.90
2023-04-30T05:21:04.429Z,11.90
2023-04-30T05:23:51.332Z,12.00
2023-04-30T05:26:38.200Z,11.90
2023-04-30T05:29:25.202Z,12.00
2023-04-30T05:32:12.128Z,12.10
2023-04-30T05:35:00.785Z,12.10
2023-04-30T05:37:50.716Z,12.10
2023-04-30T05:40:41.180Z,12.10
2023-04-30T05:43:30.681Z,12.20
2023-04-30T05:46:19.995Z,12.20
2023-04-30T05:49:11.948Z,12.20
2023-04-30T05:51:58.960Z,12.30
2023-04-30T05:54:54.900Z,12.40
2023-04-30T05:57:41.912Z,12.50
2023-04-30T06:00:28.856Z,12.50
2023-04-30T06:03:18.826Z,12.50
2023-04-30T06:06:08.103Z,12.50
2023-04-30T06:08:58.313Z,12.50
2023-04-30T06:11:45.868Z,12.70
2023-04-30T06:14:32.888Z,12.70
2023-04-30T06:17:19.885Z,12.70
2023-04-30T06:20:08.173Z,12.70
2023-04-30T06:23:02.883Z,12.70
2023-04-30T06:25:53.223Z,12.70
2023-04-30T06:28:40.135Z,12.70
2023-04-30T06:31:27.318Z,12.80
2023-04-30T06:34:14.111Z,12.90
2023-04-30T06:37:01.053Z,13.10
2023-04-30T06:39:48.157Z,13.30
2023-04-30T06:42:35.990Z,13.40
2023-04-30T06:45:22.768Z,13.50
2023-04-30T06:48:10.234Z,13.50
2023-04-30T06:50:57.460Z,13.50
2023-04-30T06:53:44.303Z,13.60
2023-04-30T06:56:31.194Z,13.70
2023-04-30T06:59:18.165Z,13.80
2023-04-30T07:02:05.247Z,13.80
2023-04-30T07:04:52.728Z,13.80
2023-04-30T07:07:39.665Z,13.70
2023-04-30T07:10:26.961Z,13.70
2023-04-30T07:13:13.758Z,13.60
2023-04-30T07:16:00.813Z,13.70
2023-04-30T07:18:49.208Z,13.90
2023-04-30T07:21:36.034Z,14.00
2023-04-30T07:24:22.873Z,14.00
2023-04-30T07:27:09.696Z,14.00
2023-04-30T07:29:56.883Z,14.00
2023-04-30T07:32:44.009Z,13.90
2023-04-30T07:35:31.185Z,13.90
2023-04-30T07:38:19.096Z,13.90
2023-04-30T07:41:06.350Z,14.00
2023-04-30T07:43:53.289Z,14.10
2023-04-30T07:46:40.384Z,14.20
2023-04-30T07:49:28.045Z,14.40
2023-04-30T07:52:14.893Z,14.60
2023-04-30T07:55:01.774Z,14.80
2023-04-30T07:57:48.631Z,14.90
2023-04-30T08:00:35.448Z,15.10
2023-04-30T08:03:22.499Z,15.30
2023-04-30T08:06:09.560Z,15.50
2023-04-30T08:08:56.548Z,15.70
2023-04-30T08:11:43.489Z,15.80
2023-04-30T08:14:31.058Z,15.80
2023-04-30T08:17:17.908Z,15.80
2023-04-30T08:20:05.648Z,15.90
2023-04-30T08:22:53.287Z,15.80
2023-04-30T08:25:40.259Z,15.90
2023-04-30T08:28:27.111Z,16.00
2023-04-30T08:31:14.046Z,16.20
2023-04-30T08:34:01.081Z,16.40
2023-04-30T08:36:47.965Z,16.50
2023-04-30T08:39:35.033Z,16.50
2023-04-30T08:42:25.991Z,16.60
2023-04-30T08:45:14.524Z,16.80
2023-04-30T08:48:02.089Z,16.90
2023-04-30T08:50:49.191Z,17.00
2023-04-30T08:53:38.595Z,17.10
2023-04-30T08:56:26.828Z,17.30
2023-04-30T08:59:14.223Z,17.50
2023-04-30T09:02:02.354Z,17.60
2023-04-30T09:04:49.454Z,17.40
2023-04-30T09:07:41.453Z,17.40
2023-04-30T09:10:34.119Z,17.30
2023-04-30T09:13:21.177Z,17.00
2023-04-30T09:16:08.173Z,16.80
2023-04-30T09:18:56.784Z,16.50
2023-04-30T09:21:43.671Z,16.30
2023-04-30T09:24:47.219Z,16.20
2023-04-30T09:27:34.285Z,16.20
2023-04-30T09:30:33.808Z,16.20
2023-04-30T09:33:20.727Z,16.20
2023-04-30T09:36:11.244Z,16.30
2023-04-30T09:39:10.309Z,16.30
2023-04-30T09:42:11.152Z,16.40
2023-04-30T09:44:58.506Z,16.30
2023-04-30T09:47:45.569Z,16.40
2023-04-30T09:50:41.384Z,16.40
2023-04-30T09:53:30.710Z,16.30
2023-04-30T09:56:24.321Z,16.30
2023-04-30T09:59:13.059Z,16.50
2023-04-30T10:02:02.550Z,16.60
2023-04-30T10:04:58.267Z,16.60
2023-04-30T10:07:45.748Z,16.80
2023-04-30T10:10:33.080Z,16.90
2023-04-30T10:13:21.865Z,17.10
2023-04-30T10:16:37.115Z,17.20
2023-04-30T10:19:25.882Z,17.20
2023-04-30T10:22:13.166Z,17.20
2023-04-30T10:25:01.502Z,17.30
2023-04-30T10:27:48.313Z,17.60
2023-04-30T10:30:38.433Z,17.80
2023-04-30T10:33:31.893Z,18.00
2023-04-30T10:36:32.152Z,18.20
2023-04-30T10:39:23.605Z,18.50
2023-04-30T10:42:11.547Z,18.60
2023-04-30T10:44:58.409Z,18.80
2023-04-30T10:47:46.214Z,19.00
2023-04-30T10:50:33.403Z,19.10
2023-04-30T10:53:23.021Z,19.20
2023-04-30T10:56:09.992Z,19.10
2023-04-30T10:59:01.233Z,19.00
2023-04-30T11:01:59.503Z,19.00
2023-04-30T11:05:09.341Z,18.90
2023-04-30T11:07:59.512Z,18.90
2023-04-30T11:11:01.664Z,19.20
2023-04-30T11:13:59.774Z,19.30
2023-04-30T11:16:50.591Z,19.30
2023-04-30T11:19:46.617Z,19.20
2023-04-30T11:22:36.469Z,18.90
2023-04-30T11:25:23.490Z,18.60
2023-04-30T11:28:25.847Z,18.60
2023-04-30T11:31:14.592Z,18.90
2023-04-30T11:34:03.645Z,19.30
2023-04-30T11:36:50.839Z,19.80
2023-04-30T11:39:39.644Z,20.20
2023-04-30T11:42:26.837Z,20.40
2023-04-30T11:45:20.972Z,20.60
2023-04-30T11:48:08.316Z,20.40
2023-04-30T11:50:55.207Z,20.20
2023-04-30T11:53:42.247Z,20.40
2023-04-30T11:56:29.046Z,20.90
2023-04-30T11:59:17.351Z,21.40
2023-04-30T12:02:05.318Z,21.50
2023-04-30T12:04:52.218Z,21.20
2023-04-30T12:07:39.560Z,20.80
2023-04-30T12:10:27.219Z,20.40
2023-04-30T12:13:14.113Z,20.10
2023-04-30T12:16:01.755Z,19.90
2023-04-30T12:18:49.681Z,19.70
2023-04-30T12:21:38.803Z,19.40
2023-04-30T12:24:27.407Z,19.30
2023-04-30T12:27:15.237Z,19.30
2023-04-30T12:30:08.165Z,19.30
2023-04-30T12:32:58.932Z,19.30
2023-04-30T12:35:45.999Z,19.30
2023-04-30T12:38:32.855Z,19.30
2023-04-30T12:41:21.159Z,19.20
2023-04-30T12:44:42.138Z,19.10
2023-04-30T12:47:30.185Z,19.10
2023-04-30T12:50:17.332Z,19.30
2023-04-30T12:53:10.480Z,19.50
2023-04-30T12:56:15.343Z,20.00
2023-04-30T12:59:02.301Z,20.20
2023-04-30T13:01:49.133Z,20.50
2023-04-30T13:04:36.594Z,20.80
2023-04-30T13:07:23.530Z,21.20
2023-04-30T13:10:11.873Z,21.50
2023-04-30T13:12:59.536Z,21.70
2023-04-30T13:15:46.291Z,21.70
2023-04-30T13:18:33.640Z,21.80
2023-04-30T13:21:21.509Z,21.90
2023-04-30T13:24:08.402Z,22.10
2023-04-30T13:26:55.441Z,22.40
2023-04-30T13:29:42.363Z,22.60
2023-04-30T13:32:29.356Z,22.80
2023-04-30T13:35:16.640Z,22.90
2023-04-30T13:38:03.580Z,22.70
2023-04-30T13:40:50.484Z,22.60
2023-04-30T13:43:41.447Z,22.60
2023-04-30T13:46:30.328Z,22.40
2023-04-30T13:49:17.263Z,22.20
2023-04-30T13:52:04.517Z,22.00
2023-04-30T13:54:54.410Z,21.90
2023-04-30T13:57:41.337Z,21.70
2023-04-30T14:00:28.186Z,21.50
2023-04-30T14:03:15.360Z,21.30
2023-04-30T14:06:02.207Z,21.30
2023-04-30T14:08:49.162Z,21.20
2023-04-30T14:11:36.125Z,21.10
2023-04-30T14:14:23.116Z,21.00
2023-04-30T14:17:10.067Z,21.00
2023-04-30T14:19:57.898Z,20.90
2023-04-30T14:22:44.970Z,20.90
2023-04-30T14:25:31.854Z,20.80
2023-04-30T14:28:18.762Z,20.70
2023-04-30T14:31:05.680Z,20.70
2023-04-30T14:33:52.600Z,20.60
2023-04-30T14:36:39.823Z,20.60
2023-04-30T14:39:26.833Z,20.50
2023-04-30T14:42:13.749Z,20.40
2023-04-30T14:45:00.563Z,20.30
2023-04-30T14:47:47.632Z,20.30
2023-04-30T14:50:34.501Z,20.20
2023-04-30T14:53:21.368Z,20.20
2023-04-30T14:56:08.449Z,20.30
2023-04-30T14:58:55.301Z,20.20
2023-04-30T15:01:42.660Z,20.10
2023-04-30T15:04:29.691Z,20.00
2023-04-30T15:07:16.660Z,19.90
2023-04-30T15:10:03.990Z,19.80
2023-04-30T15:12:51.528Z,19.70
2023-04-30T15:15:39.797Z,19.70
2023-04-30T15:18:26.756Z,19.60
2023-04-30T15:21:13.696Z,19.50
2023-04-30T15:24:01.071Z,19.50
2023-04-30T15:26:48.104Z,19.50
2023-04-30T15:29:34.921Z,19.50
2023-04-30T15:32:21.844Z,19.40
2023-04-30T15:35:09.118Z,19.30
2023-04-30T15:37:56.133Z,19.00
2023-04-30T15:40:43.128Z,18.90
2023-04-30T15:43:32.250Z,18.80
2023-04-30T15:46:19.474Z,18.70
2023-04-30T15:49:06.420Z,18.70
2023-04-30T15:51:53.335Z,18.70
2023-04-30T15:54:40.536Z,18.60
2023-04-30T15:57:27.674Z,18.50
2023-04-30T16:00:15.277Z,18.40
2023-04-30T16:03:02.174Z,18.30
2023-04-30T16:05:49.177Z,18.20
2023-04-30T16:08:36.854Z,18.10
2023-04-30T16:11:24.442Z,18.10
2023-04-30T16:14:12.117Z,18.00
2023-04-30T16:16:59.077Z,18.00
2023-04-30T16:19:46.243Z,17.90
2023-04-30T16:22:34.278Z,17.80
2023-04-30T16:25:21.171Z,17.80
2023-04-30T16:28:08.161Z,17.60
2023-04-30T16:30:56.033Z,17.50
2023-04-30T16:33:43.270Z,17.40
2023-04-30T16:36:30.324Z,17.40
2023-04-30T16:39:17.642Z,17.30
2023-04-30T16:42:04.493Z,17.20
2023-04-30T16:44:51.371Z,17.20
2023-04-30T16:47:38.333Z,17.10
2023-04-30T16:50:26.882Z,17.00
2023-04-30T16:53:13.746Z,16.90
2023-04-30T16:56:00.663Z,16.90
2023-04-30T16:58:47.450Z,16.80
2023-04-30T17:01:34.550Z,16.80
2023-04-30T17:04:21.381Z,16.70
2023-04-30T17:07:08.590Z,16.60
2023-04-30T17:09:55.935Z,16.50
2023-04-30T17:12:43.351Z,16.40
2023-04-30T17:15:30.252Z,16.40
2023-04-30T17:18:17.214Z,16.30
2023-04-30T17:21:04.349Z,16.20
2023-04-30T17:23:51.256Z,16.20
2023-04-30T17:26:38.166Z,16.10
2023-04-30T17:29:25.069Z,16.10
2023-04-30T17:32:11.938Z,16.00
2023-04-30T17:35:00.210Z,16.00
2023-04-30T17:37:47.298Z,15.90
2023-04-30T17:40:34.264Z,15.90
2023-04-30T17:43:21.134Z,15.80
2023-04-30T17:46:08.027Z,15.80
2023-04-30T17:48:54.914Z,15.70
2023-04-30T17:51:41.826Z,15.70
2023-04-30T17:54:30.705Z,15.60
2023-04-30T17:57:17.622Z,15.50
2023-04-30T18:00:05.396Z,15.50
2023-04-30T18:02:52.291Z,15.40
2023-04-30T18:05:39.655Z,15.40
2023-04-30T18:08:26.847Z,15.30
2023-04-30T18:11:13.660Z,15.30
2023-04-30T18:14:00.611Z,15.30
2023-04-30T18:16:47.800Z,15.20
2023-04-30T18:19:38.646Z,15.20
2023-04-30T18:22:25.533Z,15.10
2023-04-30T18:25:13.480Z,15.10
2023-04-30T18:28:01.386Z,15.00
2023-04-30T18:30:48.288Z,15.00
2023-04-30T18:33:35.119Z,15.00
2023-04-30T18:36:23.605Z,14.90
2023-04-30T18:39:12.481Z,14.80
2023-04-30T18:41:59.529Z,14.80
2023-04-30T18:44:46.322Z,14.80
2023-04-30T18:47:33.738Z,14.80
2023-04-30T18:50:21.588Z,14.70
2023-04-30T18:53:08.468Z,14.70
2023-04-30T18:55:57.626Z,14.60
2023-04-30T18:58:45.750Z,14.50
2023-04-30T19:01:32.817Z,14.50
2023-04-30T19:04:19.717Z,14.40
2023-04-30T19:07:09.713Z,14.40
2023-04-30T19:09:59.785Z,14.30
2023-04-30T19:12:50.592Z,14.20
2023-04-30T19:15:37.560Z,14.10
2023-04-30T19:18:26.872Z,14.00
2023-04-30T19:21:16.109Z,14.00
2023-04-30T19:24:14.936Z,13.90
2023-04-30T19:27:04.792Z,13.90
2023-04-30T19:29:53.377Z,13.90
2023-04-30T19:32:40.948Z,13.90
2023-04-30T19:35:31.781Z,13.90
2023-04-30T19:38:19.373Z,13.90
2023-04-30T19:41:07.653Z,13.80
2023-04-30T19:43:54.696Z,13.90
2023-04-30T19:46:42.586Z,13.80
2023-04-30T19:49:29.702Z,13.70
2023-04-30T19:52:22.474Z,13.70
2023-04-30T19:55:09.834Z,13.70
2023-04-30T19:57:59.824Z,13.60
2023-04-30T20:00:46.925Z,13.50
2023-04-30T20:03:35.751Z,13.50
2023-04-30T20:06:22.956Z,13.50
2023-04-30T20:09:10.091Z,13.50
2023-04-30T20:11:56.988Z,13.50
2023-04-30T20:14:43.901Z,13.50
2023-04-30T20:17:36.338Z,13.40
2023-04-30T20:20:34.713Z,13.50
2023-04-30T20:23:32.555Z,13.40
2023-04-30T20:26:26.026Z,13.40
2023-04-30T20:33:31.826Z,13.30
2023-04-30T20:36:10.521Z,13.30
2023-04-30T20:39:26.823Z,13.30
2023-04-30T20:42:23.933Z,13.30
2023-04-30T20:45:11.371Z,13.40
2023-04-30T20:47:58.715Z,13.30
2023-04-30T20:50:48.587Z,13.30
2023-04-30T20:53:42.002Z,13.30
2023-04-30T20:56:31.427Z,13.30
2023-04-30T20:59:18.375Z,13.20
2023-04-30T21:02:10.345Z,13.10
2023-04-30T21:05:07.553Z,13.10
2023-04-30T21:07:54.511Z,13.00
2023-04-30T21:10:43.822Z,13.00
2023-04-30T21:13:31.204Z,13.00
2023-04-30T21:16:18.653Z,13.00
2023-04-30T21:19:05.580Z,13.00
2023-04-30T21:21:53.204Z,13.10
2023-04-30T21:24:40.058Z,13.00
2023-04-30T21:27:31.039Z,13.00
2023-04-30T21:30:18.323Z,13.00
2023-04-30T21:33:05.440Z,12.90
2023-04-30T21:35:54.903Z,12.90
2023-04-30T21:38:46.087Z,12.90
2023-04-30T21:41:35.371Z,12.90
2023-04-30T21:44:22.466Z,12.90
2023-04-30T21:47:10.563Z,12.90
2023-04-30T21:49:58.814Z,12.80
2023-04-30T21:52:52.193Z,12.80
2023-04-30T21:55:44.945Z,12.80
2023-04-30T21:59:29.353Z,12.80
2023-04-30T22:02:23.295Z,12.70
2023-04-30T22:05:39.208Z,12.70
2023-04-30T22:11:42.795Z,12.70
2023-04-30T22:14:36.177Z,12.70
2023-04-30T22:17:23.595Z,12.70
2023-04-30T22:20:11.234Z,12.70
2023-04-30T22:23:06.290Z,12.70
2023-04-30T22:25:53.474Z,12.70
2023-04-30T22:28:44.932Z,12.70
2023-04-30T22:31:40.793Z,12.70
2023-04-30T22:34:28.372Z,12.70
2023-04-30T22:37:15.365Z,12.60
2023-04-30T22:40:02.168Z,12.60
2023-04-30T22:42:49.195Z,12.60
2023-04-30T22:45:38.352Z,12.60
2023-04-30T22:48:29.146Z,12.60
2023-04-30T22:51:15.947Z,12.50
2023-04-30T22:54:06.611Z,12.50
2023-04-30T22:56:53.439Z,12.60
2023-04-30T22:59:40.486Z,12.50
2023-04-30T23:02:28.772Z,12.40
2023-04-30T23:05:15.880Z,12.30
2023-04-30T23:08:03.137Z,12.20
2023-04-30T23:10:50.008Z,12.30
2023-04-30T23:13:37.257Z,12.20
2023-04-30T23:16:24.158Z,12.30
2023-04-30T23:19:11.811Z,12.30
2023-04-30T23:21:58.684Z,12.30
2023-04-30T23:24:45.704Z,12.30
2023-04-30T23:27:32.780Z,12.20
2023-04-30T23:30:19.595Z,12.20
2023-04-30T23:33:06.512Z,12.20
2023-04-30T23:35:53.843Z,12.20
2023-04-30T23:38:42.907Z,12.10
2023-04-30T23:41:29.792Z,12.10
2023-04-30T23:44:16.592Z,12.10
2023-04-30T23:47:03.519Z,12.00
2023-04-30T23:49:50.387Z,12.00
2023-04-30T23:52:37.217Z,12.10
2023-04-30T23:55:24.239Z,12.10
2023-04-30T23:58:11.085Z,12.20
